Time;durP1;ratioP1;P1;durP2;ratioP2;P2;SDS_P1;SDS_P2;PMS_P1;PMS_P2;Temp;Humidity;BMP_temperature;BMP_pressure;BME280_temperature;BME280_humidity;BME280_pressure;Samples;Min_cycle;Max_cycle;Signal;HPM_P1;HPM_P2
2023/06/24 00:01:40;;;;;;;3.42;3.13;;;;;;;19.00;55.66;97566.91;4927268;29;20119;-80
2023/06/24 00:04:08;;;;;;;3.80;2.65;;;;;;;19.02;56.29;97566.69;4929521;29;20044;-80
2023/06/24 00:06:36;;;;;;;3.22;2.92;;;;;;;19.06;57.62;97573.16;4930141;29;20052;-79
2023/06/24 00:09:04;;;;;;;3.83;3.25;;;;;;;19.10;56.56;97569.09;4930011;29;20471;-80
2023/06/24 00:11:32;;;;;;;3.35;3.00;;;;;;;19.14;55.85;97572.94;4929597;29;20060;-78
2023/06/24 00:14:01;;;;;;;3.10;2.80;;;;;;;19.16;56.53;97581.47;4929565;29;20052;-80
2023/06/24 00:16:28;;;;;;;2.78;2.50;;;;;;;19.19;56.41;97573.09;4928950;29;20048;-79
2023/06/24 00:19:00;;;;;;;3.45;2.90;;;;;;;19.25;59.10;97576.72;4929482;29;20080;-80
2023/06/24 00:21:29;;;;;;;3.95;2.95;;;;;;;19.30;58.81;97576.88;4929628;29;20056;-80
2023/06/24 00:23:57;;;;;;;3.15;2.85;;;;;;;19.32;57.52;97583.59;4929106;29;20048;-82
2023/06/24 00:26:25;;;;;;;4.65;2.85;;;;;;;19.26;55.56;97576.53;4929128;29;20052;-80
2023/06/24 00:28:53;;;;;;;3.28;2.97;;;;;;;19.18;55.41;97573.31;4929116;29;20048;-81
2023/06/24 00:31:22;;;;;;;3.40;2.85;;;;;;;19.12;55.26;97580.25;4929224;29;20055;-78
2023/06/24 00:33:52;;;;;;;3.40;2.63;;;;;;;19.10;56.22;97579.66;4928889;29;20075;-79
2023/06/24 00:36:19;;;;;;;4.50;3.47;;;;;;;19.06;55.34;97573.16;4927555;29;20056;-82
2023/06/24 00:38:48;;;;;;;3.10;2.80;;;;;;;19.03;55.49;97579.69;4928321;29;20157;-78
2023/06/24 00:41:17;;;;;;;3.03;2.72;;;;;;;19.06;59.83;97581.09;4926666;29;20500;-79
2023/06/24 00:43:45;;;;;;;3.30;3.00;;;;;;;19.13;58.34;97579.22;4927357;29;20080;-78
2023/06/24 00:46:15;;;;;;;3.60;2.88;;;;;;;19.16;58.55;97573.53;4926517;29;20104;-78
2023/06/24 00:48:44;;;;;;;4.82;3.75;;;;;;;19.14;57.00;97567.63;4926162;29;20084;-80
2023/06/24 00:51:13;;;;;;;3.97;3.58;;;;;;;19.13;56.98;97563.34;4927798;29;20044;-79
2023/06/24 00:53:40;;;;;;;5.00;3.83;;;;;;;19.11;56.33;97565.41;4927743;29;20115;-78
2023/06/24 00:56:08;;;;;;;4.20;3.42;;;;;;;19.08;56.41;97571.13;4926650;29;20057;-81
2023/06/24 00:58:38;;;;;;;3.85;3.30;;;;;;;19.00;56.21;97574.84;4927718;29;20048;-80
2023/06/24 01:01:08;;;;;;;4.07;3.40;;;;;;;18.93;56.33;97564.31;4927675;29;20052;-79
2023/06/24 01:03:37;;;;;;;3.00;2.80;;;;;;;18.85;56.69;97564.53;4927062;29;20063;-82
2023/06/24 01:06:08;;;;;;;4.05;3.00;;;;;;;18.80;57.04;97561.69;4926981;29;20104;-78
2023/06/24 01:08:36;;;;;;;4.43;3.15;;;;;;;18.79;57.47;97561.94;4926771;29;20116;-80
2023/06/24 01:11:03;;;;;;;3.05;2.75;;;;;;;18.77;57.48;97559.47;4925911;29;20644;-79
2023/06/24 01:13:31;;;;;;;4.90;2.97;;;;;;;18.70;57.78;97569.25;4925848;29;20497;-79
2023/06/24 01:16:03;;;;;;;4.38;3.00;;;;;;;18.64;57.98;97565.59;4924598;29;20052;-78
2023/06/24 01:18:41;;;;;;;4.68;3.38;;;;;;;18.61;58.39;97571.31;4925512;29;20056;-81
2023/06/24 01:21:16;;;;;;;5.70;3.40;;;;;;;18.58;58.53;97570.91;4925456;29;20056;-81
2023/06/24 01:24:04;;;;;;;5.03;3.03;;;;;;;18.50;58.52;97562.22;4925014;29;20091;-78
2023/06/24 01:26:59;;;;;;;4.05;3.22;;;;;;;18.41;58.73;97558.19;4925423;29;20509;-79
2023/06/24 01:29:54;;;;;;;4.55;3.50;;;;;;;18.30;59.13;97561.44;4925126;29;20083;-78
2023/06/24 01:32:30;;;;;;;3.90;3.10;;;;;;;18.22;59.08;97559.03;4924517;29;20048;-78
2023/06/24 01:35:00;;;;;;;3.42;3.03;;;;;;;18.16;59.25;97552.75;4923963;29;20398;-78
2023/06/24 01:37:33;;;;;;;4.15;3.58;;;;;;;18.12;59.28;97560.25;4922242;29;20107;-79
2023/06/24 01:40:09;;;;;;;3.75;3.20;;;;;;;18.07;59.45;97552.16;4923360;29;20508;-80
2023/06/24 01:42:39;;;;;;;4.05;3.30;;;;;;;18.01;59.52;97550.31;4922550;29;20059;-79
2023/06/24 01:45:10;;;;;;;3.15;2.85;;;;;;;17.94;59.68;97541.63;4923167;29;20523;-80
2023/06/24 01:47:41;;;;;;;5.47;3.40;;;;;;;17.89;59.93;97542.22;4922979;29;20548;-78
2023/06/24 01:50:12;;;;;;;5.28;3.00;;;;;;;17.86;60.11;97539.19;4923845;29;20500;-78
2023/06/24 01:52:44;;;;;;;3.60;3.13;;;;;;;17.83;60.17;97539.59;4923270;29;20063;-79
2023/06/24 01:55:16;;;;;;;3.53;3.22;;;;;;;17.80;60.28;97537.31;4922203;29;20472;-78
2023/06/24 01:57:46;;;;;;;4.63;2.95;;;;;;;17.74;60.13;97530.25;4922015;29;20045;-78
2023/06/24 02:00:16;;;;;;;4.55;3.30;;;;;;;17.66;60.14;97523.34;4923474;29;20052;-77
2023/06/24 02:02:47;;;;;;;3.45;3.00;;;;;;;17.59;60.51;97519.91;4921569;29;20132;-78
2023/06/24 02:05:17;;;;;;;6.40;3.30;;;;;;;17.56;61.10;97531.69;4921519;29;20436;-78
2023/06/24 02:07:47;;;;;;;3.58;3.28;;;;;;;17.56;60.76;97525.56;4921104;29;20052;-79
2023/06/24 02:10:16;;;;;;;5.93;3.42;;;;;;;17.49;60.41;97531.69;4921250;29;20048;-77
2023/06/24 02:12:46;;;;;;;3.55;3.05;;;;;;;17.42;60.68;97530.03;4921111;29;20080;-80
2023/06/24 02:15:14;;;;;;;3.85;3.42;;;;;;;17.38;60.74;97529.66;4921023;29;20516;-78
2023/06/24 02:17:43;;;;;;;3.35;2.72;;;;;;;17.34;60.75;97532.88;4920471;29;20084;-79
2023/06/24 02:20:16;;;;;;;5.25;3.08;;;;;;;17.35;61.41;97530.03;4921309;29;20417;-78
2023/06/24 02:22:45;;;;;;;4.38;3.20;;;;;;;17.39;61.14;97520.72;4921458;29;20087;-82
2023/06/24 02:25:13;;;;;;;3.45;3.10;;;;;;;17.39;60.66;97522.53;4922240;29;20098;-79
2023/06/24 02:27:41;;;;;;;7.30;3.00;;;;;;;17.33;60.54;97515.44;4923372;29;20112;-83
2023/06/24 02:30:10;;;;;;;3.58;3.00;;;;;;;17.25;60.52;97514.63;4923860;29;20056;-84
2023/06/24 02:32:38;;;;;;;3.50;3.20;;;;;;;17.25;61.19;97511.16;4927529;29;20071;-81
2023/06/24 02:35:07;;;;;;;3.55;2.85;;;;;;;17.28;62.36;97510.78;4927509;29;20076;-84
2023/06/24 02:37:36;;;;;;;3.88;3.10;;;;;;;17.36;62.17;97515.03;4925412;29;20087;-81
2023/06/24 02:40:05;;;;;;;2.95;2.65;;;;;;;17.30;60.55;97509.56;4928025;29;20056;-85
2023/06/24 02:42:33;;;;;;;5.00;3.30;;;;;;;17.22;60.30;97515.00;4927157;29;20048;-84
2023/06/24 02:45:01;;;;;;;3.20;2.90;;;;;;;17.14;60.44;97517.03;4927123;29;20152;-81
2023/06/24 02:47:30;;;;;;;3.70;3.20;;;;;;;17.05;60.39;97519.03;4927492;29;20075;-84
2023/06/24 02:49:58;;;;;;;3.20;2.75;;;;;;;16.97;60.48;97522.69;4927443;29;20056;-84
2023/06/24 02:52:28;;;;;;;4.50;3.22;;;;;;;16.89;60.54;97531.59;4926305;29;20052;-81
2023/06/24 02:54:58;;;;;;;3.92;3.33;;;;;;;16.82;60.86;97535.22;4925395;29;20052;-83
2023/06/24 02:57:26;;;;;;;4.15;3.30;;;;;;;16.74;61.12;97538.00;4927156;29;20135;-81
2023/06/24 02:59:54;;;;;;;5.07;3.13;;;;;;;16.66;61.38;97537.16;4926268;29;20052;-84
2023/06/24 03:02:22;;;;;;;3.67;3.38;;;;;;;16.61;61.29;97536.13;4925856;29;20048;-81
2023/06/24 03:04:51;;;;;;;3.30;2.83;;;;;;;16.56;61.69;97536.72;4924785;29;20056;-78
2023/06/24 03:07:20;;;;;;;4.03;3.25;;;;;;;16.60;62.45;97540.59;4924800;29;20483;-82
2023/06/24 03:09:48;;;;;;;5.22;3.72;;;;;;;16.58;61.85;97541.81;4925449;29;20063;-86
2023/06/24 03:12:17;;;;;;;4.38;3.45;;;;;;;16.52;62.07;97546.03;4924766;29;20450;-81
2023/06/24 03:14:45;;;;;;;3.78;3.03;;;;;;;16.52;62.58;97543.38;4955160;23;20106;-78
2023/06/24 03:17:13;;;;;;;5.20;3.75;;;;;;;16.52;62.18;97546.03;4953322;29;20043;-78
2023/06/24 03:19:40;;;;;;;4.25;3.55;;;;;;;16.51;62.39;97546.22;4953995;29;20082;-77
2023/06/24 03:22:08;;;;;;;3.53;3.22;;;;;;;16.50;62.27;97552.50;4953874;29;20055;-78
2023/06/24 03:24:35;;;;;;;4.45;3.45;;;;;;;16.46;62.43;97552.91;4953550;29;20106;-78
2023/06/24 03:27:03;;;;;;;6.70;3.97;;;;;;;16.51;63.07;97546.22;4953815;29;20616;-76
2023/06/24 03:29:32;;;;;;;4.43;3.45;;;;;;;16.52;62.64;97548.66;4953574;29;20087;-76
2023/06/24 03:32:00;;;;;;;3.35;3.05;;;;;;;16.50;62.24;97557.75;4952748;29;20110;-76
2023/06/24 03:34:28;;;;;;;4.30;3.55;;;;;;;16.43;62.48;97558.53;4953651;29;20422;-76
2023/06/24 03:36:55;;;;;;;4.07;3.42;;;;;;;16.40;62.38;97553.66;4964909;28;20054;-76
2023/06/24 03:39:23;;;;;;;5.03;3.50;;;;;;;16.35;62.51;97561.31;4976346;29;20050;-76
2023/06/24 03:41:50;;;;;;;4.80;3.58;;;;;;;16.27;62.82;97566.78;4961744;29;20047;-76
2023/06/24 03:44:19;;;;;;;4.28;3.42;;;;;;;16.27;64.03;97561.50;4976973;29;20070;-76
2023/06/24 03:46:48;;;;;;;3.45;3.15;;;;;;;16.30;64.36;97561.09;4976634;29;20051;-76
2023/06/24 03:49:16;;;;;;;3.65;3.30;;;;;;;16.38;64.29;97568.06;4975819;29;20047;-76
2023/06/24 03:51:44;;;;;;;4.20;3.13;;;;;;;16.36;63.37;97568.22;4960133;29;20055;-77
2023/06/24 03:54:12;;;;;;;4.07;3.17;;;;;;;16.35;63.67;97571.84;4957531;29;20055;-76
2023/06/24 03:56:39;;;;;;;4.65;3.58;;;;;;;16.41;63.00;97576.34;4957141;29;20071;-76
2023/06/24 03:59:07;;;;;;;8.00;3.47;;;;;;;16.47;62.78;97574.78;4957731;29;20055;-76
2023/06/24 04:01:36;;;;;;;4.30;3.70;;;;;;;16.45;62.61;97572.31;4957558;29;20055;-78
2023/06/24 04:04:05;;;;;;;4.53;3.85;;;;;;;16.42;62.89;97575.34;4958308;29;20074;-75
2023/06/24 04:06:33;;;;;;;4.55;3.47;;;;;;;16.45;63.03;97576.78;4958329;29;20047;-76
2023/06/24 04:09:01;;;;;;;3.67;3.38;;;;;;;16.53;62.41;97581.06;4957004;29;20051;-77
2023/06/24 04:11:29;;;;;;;3.45;3.15;;;;;;;16.51;62.61;97585.72;4956586;29;20062;-76
2023/06/24 04:13:56;;;;;;;4.70;3.25;;;;;;;16.46;62.54;97589.78;4956910;29;20098;-76
2023/06/24 04:16:24;;;;;;;5.82;3.55;;;;;;;16.43;62.90;97595.41;4956372;29;20047;-76
2023/06/24 04:18:51;;;;;;;4.70;3.72;;;;;;;16.40;62.60;97595.81;4956826;29;20061;-76
2023/06/24 04:21:20;;;;;;;4.22;3.58;;;;;;;16.33;62.98;97594.94;4956559;29;20126;-77
2023/06/24 04:23:48;;;;;;;3.88;3.13;;;;;;;16.35;63.35;97592.91;4956295;29;20546;-77
2023/06/24 04:26:15;;;;;;;5.15;3.80;;;;;;;16.40;62.93;97593.19;4956443;29;20051;-76
2023/06/24 04:28:43;;;;;;;3.92;3.47;;;;;;;16.42;63.18;97587.69;4966596;29;20063;-76
2023/06/24 04:31:11;;;;;;;3.95;3.35;;;;;;;16.42;62.91;97593.78;4969379;29;20062;-77
2023/06/24 04:33:38;;;;;;;4.05;3.55;;;;;;;16.41;62.89;97594.78;4959101;29;20051;-76
2023/06/24 04:36:06;;;;;;;4.57;3.92;;;;;;;16.40;63.11;97595.81;4956678;29;20133;-76
2023/06/24 04:38:35;;;;;;;4.80;3.47;;;;;;;16.40;63.30;97595.81;4956393;29;20050;-76
2023/06/24 04:41:03;;;;;;;5.53;3.33;;;;;;;16.38;63.01;97603.09;4956356;29;20051;-75
2023/06/24 04:43:30;;;;;;;6.03;3.38;;;;;;;16.37;63.29;97605.91;4956170;29;20415;-76
2023/06/24 04:45:58;;;;;;;4.72;3.17;;;;;;;16.37;63.29;97613.81;4955919;29;20055;-77
2023/06/24 04:48:26;;;;;;;4.82;3.45;;;;;;;16.38;63.39;97603.09;4956222;28;20787;-77
2023/06/24 04:50:54;;;;;;;5.68;3.30;;;;;;;16.40;63.24;97606.34;4956083;29;20047;-76
2023/06/24 04:53:22;;;;;;;4.70;3.42;;;;;;;16.43;63.32;97607.75;4955946;29;20054;-76
2023/06/24 04:55:51;;;;;;;3.75;3.40;;;;;;;16.46;63.52;97610.00;4956359;29;20118;-78
2023/06/24 04:58:18;;;;;;;3.88;3.38;;;;;;;16.47;63.23;97606.38;4955840;29;20114;-76
2023/06/24 05:00:46;;;;;;;3.90;3.10;;;;;;;16.48;63.14;97608.78;4956132;29;20055;-76
2023/06/24 05:03:14;;;;;;;5.80;3.70;;;;;;;16.50;63.25;97610.44;4956216;29;20098;-76
2023/06/24 05:05:41;;;;;;;4.43;3.40;;;;;;;16.50;63.38;97618.34;4956200;29;20051;-76
2023/06/24 05:08:09;;;;;;;3.83;3.30;;;;;;;16.57;63.80;97613.91;4955465;29;20130;-76
2023/06/24 05:10:37;;;;;;;4.97;3.03;;;;;;;16.67;63.51;97614.38;4956291;29;20059;-76
2023/06/24 05:13:06;;;;;;;5.57;3.38;;;;;;;16.78;63.18;97619.09;4955748;29;20047;-76
2023/06/24 05:15:33;;;;;;;7.78;3.15;;;;;;;16.85;62.78;97619.13;4955324;29;20057;-76
2023/06/24 05:18:02;;;;;;;5.60;3.50;;;;;;;16.89;62.69;97618.53;4955681;29;20098;-76
2023/06/24 05:20:29;;;;;;;5.00;3.83;;;;;;;16.94;62.58;97617.94;4956123;29;20055;-76
2023/06/24 05:22:57;;;;;;;4.25;3.38;;;;;;;17.00;62.81;97616.38;4955314;29;20062;-75
2023/06/24 05:25:24;;;;;;;3.30;3.00;;;;;;;17.14;64.16;97623.28;4955377;29;20079;-76
2023/06/24 05:27:52;;;;;;;5.53;3.70;;;;;;;17.26;65.49;97624.34;4955070;29;20576;-76
2023/06/24 05:30:21;;;;;;;4.60;3.20;;;;;;;17.34;64.76;97617.25;4955167;29;20082;-77
2023/06/24 05:32:48;;;;;;;5.30;3.60;;;;;;;17.39;62.53;97617.50;4950711;29;20051;-77
2023/06/24 05:35:16;;;;;;;4.03;3.30;;;;;;;17.42;62.06;97612.59;4953164;29;20078;-76
2023/06/24 05:37:44;;;;;;;5.72;3.70;;;;;;;17.44;61.44;97618.50;4954214;29;20050;-77
2023/06/24 05:40:12;;;;;;;3.17;2.85;;;;;;;17.49;61.55;97620.53;4954758;29;20134;-77
2023/06/24 05:42:40;;;;;;;4.90;3.45;;;;;;;17.55;61.27;97614.47;4955479;29;20059;-78
2023/06/24 05:45:08;;;;;;;4.93;3.35;;;;;;;17.64;62.24;97623.78;4955107;29;20051;-77
2023/06/24 05:47:37;;;;;;;3.65;3.35;;;;;;;17.71;61.46;97624.63;4955606;29;20075;-78
2023/06/24 05:50:06;;;;;;;3.38;3.08;;;;;;;17.80;60.96;97624.41;4955265;29;20047;-77
2023/06/24 05:52:33;;;;;;;4.25;3.33;;;;;;;17.84;61.61;97623.03;4954279;29;20078;-78
2023/06/24 05:55:01;;;;;;;4.20;3.40;;;;;;;17.91;61.01;97623.88;4949621;29;20047;-78
2023/06/24 05:57:29;;;;;;;4.18;3.05;;;;;;;17.99;61.42;97621.00;4957444;29;20043;-79
2023/06/24 05:59:57;;;;;;;3.97;3.10;;;;;;;18.06;60.17;97618.34;4954899;28;20085;-78
2023/06/24 06:02:29;;;;;;;3.90;3.10;;;;;;;18.12;60.62;97620.97;4960606;29;20146;-79
2023/06/24 06:05:04;;;;;;;3.92;3.30;;;;;;;18.18;59.33;97613.28;4967432;29;20058;-79
2023/06/24 06:07:32;;;;;;;3.67;3.05;;;;;;;18.25;61.40;97611.44;4974939;28;20071;-79
2023/06/24 06:10:00;;;;;;;3.63;3.15;;;;;;;18.35;61.59;97617.13;5086925;23;20051;-81
2023/06/24 06:12:28;;;;;;;4.25;3.30;;;;;;;18.45;61.16;97617.47;4962372;29;20127;-80
2023/06/24 06:14:55;;;;;;;3.95;2.92;;;;;;;18.55;62.75;97618.91;4955298;29;20056;-79
2023/06/24 06:17:24;;;;;;;3.65;3.22;;;;;;;18.63;62.81;97621.28;4945650;29;20055;-78
2023/06/24 06:19:51;;;;;;;6.35;3.22;;;;;;;18.69;61.19;97620.47;4943227;29;20519;-78
2023/06/24 06:22:20;;;;;;;4.00;3.40;;;;;;;18.76;63.85;97615.16;4934946;29;20579;-77
2023/06/24 06:24:49;;;;;;;5.07;3.35;;;;;;;18.82;60.91;97617.81;4935623;29;20062;-77
2023/06/24 06:27:16;;;;;;;5.35;2.97;;;;;;;18.88;60.55;97616.16;4934916;29;20111;-77
2023/06/24 06:29:44;;;;;;;4.35;3.28;;;;;;;18.93;60.37;97619.81;4935367;29;20051;-77
2023/06/24 06:32:12;;;;;;;4.32;2.90;;;;;;;19.00;60.80;97616.31;4935635;29;20098;-77
2023/06/24 06:34:39;;;;;;;4.25;3.25;;;;;;;19.07;58.71;97617.13;4935113;29;20047;-76
2023/06/24 06:37:07;;;;;;;6.00;3.25;;;;;;;19.16;59.13;97620.31;4934840;29;20091;-76
2023/06/24 06:39:36;;;;;;;4.82;3.00;;;;;;;19.24;60.20;97618.25;4933124;29;20106;-77
2023/06/24 06:42:03;;;;;;;3.30;3.00;;;;;;;19.34;61.26;97610.63;4934382;29;20508;-76
2023/06/24 06:44:31;;;;;;;3.90;3.50;;;;;;;19.42;58.22;97608.78;4929724;29;20075;-76
2023/06/24 06:46:59;;;;;;;5.20;3.38;;;;;;;19.47;58.60;97612.41;4930332;29;20423;-75
2023/06/24 06:49:26;;;;;;;3.33;2.88;;;;;;;19.55;59.09;97609.50;4931123;29;20100;-75
2023/06/24 06:51:55;;;;;;;3.40;3.10;;;;;;;19.62;59.37;97609.44;4934624;29;20085;-75
2023/06/24 06:54:22;;;;;;;4.18;3.30;;;;;;;19.66;56.99;97605.34;4934057;29;20496;-75
2023/06/24 06:56:52;;;;;;;3.80;3.42;;;;;;;19.72;54.87;97609.00;4934294;29;20055;-75
2023/06/24 06:59:19;;;;;;;4.03;3.10;;;;;;;19.75;54.96;97608.56;4934429;29;20059;-75
2023/06/24 07:01:47;;;;;;;6.55;3.55;;;;;;;19.83;54.64;97604.84;4933459;29;20134;-74
2023/06/24 07:04:15;;;;;;;3.88;2.92;;;;;;;19.92;54.56;97608.84;4934037;29;20500;-75
2023/06/24 07:06:42;;;;;;;2.78;2.55;;;;;;;19.98;54.93;97607.97;4934100;29;20047;-75
2023/06/24 07:09:10;;;;;;;3.60;3.20;;;;;;;20.05;55.29;97611.38;4934012;29;20114;-75
2023/06/24 07:11:37;;;;;;;3.53;3.20;;;;;;;20.14;54.92;97622.53;4934075;29;20566;-75
2023/06/24 07:14:06;;;;;;;4.35;3.20;;;;;;;20.20;54.22;97613.69;4937267;29;20051;-75
2023/06/24 07:16:34;;;;;;;3.45;3.10;;;;;;;20.30;53.99;97610.53;4938174;29;20056;-74
2023/06/24 07:19:01;;;;;;;4.55;3.45;;;;;;;20.37;53.86;97611.28;4938403;29;20048;-75
2023/06/24 07:21:29;;;;;;;3.67;3.28;;;;;;;20.47;54.53;97616.88;4938043;29;20118;-75
2023/06/24 07:23:57;;;;;;;3.90;3.30;;;;;;;20.56;53.99;97609.47;4937888;29;20048;-75
2023/06/24 07:26:24;;;;;;;4.03;3.40;;;;;;;20.65;53.23;97612.66;4937831;29;20052;-75
2023/06/24 07:28:53;;;;;;;5.07;3.58;;;;;;;20.72;52.64;97613.38;4938182;29;20196;-75
2023/06/24 07:31:37;;;;;;;5.25;3.65;;;;;;;20.80;52.05;97612.28;4938004;29;20051;-75
2023/06/24 07:34:05;;;;;;;5.68;3.25;;;;;;;20.89;52.53;97613.59;4937957;29;20134;-75
2023/06/24 07:36:33;;;;;;;3.00;2.70;;;;;;;20.97;52.22;97615.94;4937482;29;20056;-75
2023/06/24 07:39:01;;;;;;;3.80;3.45;;;;;;;21.06;52.03;97611.94;4937648;29;20056;-75
2023/06/24 07:41:28;;;;;;;3.78;3.28;;;;;;;21.17;51.84;97605.09;4937541;29;20586;-75
2023/06/24 07:43:56;;;;;;;4.13;3.42;;;;;;;21.28;51.76;97606.97;4937432;29;20507;-75
2023/06/24 07:46:23;;;;;;;4.93;3.38;;;;;;;21.38;51.61;97607.25;4937548;29;20087;-75
2023/06/24 07:48:52;;;;;;;3.53;3.03;;;;;;;21.50;50.77;97614.44;4937554;29;20122;-75
2023/06/24 07:51:20;;;;;;;5.35;3.42;;;;;;;21.58;50.52;97612.28;4937474;29;20091;-76
2023/06/24 07:53:57;;;;;;;4.30;3.15;;;;;;;21.67;50.29;97615.41;4937882;29;20504;-75
2023/06/24 07:56:24;;;;;;;4.13;3.35;;;;;;;21.75;52.39;97607.09;4937361;29;20055;-75
2023/06/24 07:58:52;;;;;;;4.15;3.70;;;;;;;21.81;50.51;97598.22;4937349;29;20527;-75
2023/06/24 08:01:19;;;;;;;3.72;3.25;;;;;;;21.90;49.96;97603.19;4937197;29;20496;-75
2023/06/24 08:03:47;;;;;;;3.75;3.22;;;;;;;21.93;49.24;97614.19;4937138;29;20500;-75
2023/06/24 08:06:16;;;;;;;4.30;3.72;;;;;;;21.88;48.58;97605.28;4937109;29;20063;-75
2023/06/24 08:08:45;;;;;;;4.80;3.67;;;;;;;21.81;48.84;97611.50;4937185;29;20051;-75
2023/06/24 08:11:13;;;;;;;4.43;4.03;;;;;;;21.79;48.93;97604.81;4937235;29;20138;-75
2023/06/24 08:13:41;;;;;;;3.70;3.35;;;;;;;21.82;48.83;97607.00;4937143;29;20468;-75
2023/06/24 08:16:09;;;;;;;3.92;3.50;;;;;;;21.91;48.52;97604.81;4937640;29;20052;-75
2023/06/24 08:18:36;;;;;;;3.60;3.20;;;;;;;21.96;48.05;97607.59;4938554;29;20118;-75
2023/06/24 08:21:04;;;;;;;4.15;3.58;;;;;;;21.98;47.87;97602.88;4938880;29;20232;-76
2023/06/24 08:23:33;;;;;;;3.95;3.40;;;;;;;22.04;47.54;97604.59;4936798;29;20055;-76
2023/06/24 08:26:00;;;;;;;4.20;3.65;;;;;;;22.09;47.96;97590.63;4936651;29;20051;-76
2023/06/24 08:28:43;;;;;;;3.67;3.15;;;;;;;22.20;48.56;97589.81;4936834;29;20055;-75
2023/06/24 08:31:10;;;;;;;3.35;3.05;;;;;;;22.31;48.06;97585.56;4937254;29;20054;-75
2023/06/24 08:33:38;;;;;;;3.50;3.20;;;;;;;22.38;47.10;97586.25;4937033;29;20048;-76
2023/06/24 08:36:06;;;;;;;4.70;3.45;;;;;;;22.47;47.69;97592.81;4936635;29;20103;-75
2023/06/24 08:38:35;;;;;;;5.38;3.17;;;;;;;22.58;47.56;97589.31;4936838;29;20126;-75
2023/06/24 08:41:03;;;;;;;5.20;3.25;;;;;;;22.71;46.90;97590.91;4936571;29;20055;-75
2023/06/24 08:43:30;;;;;;;3.67;3.28;;;;;;;22.83;46.75;97601.53;4936672;29;20102;-76
2023/06/24 08:45:58;;;;;;;4.10;2.90;;;;;;;22.95;46.48;97593.50;4936617;29;20052;-76
2023/06/24 08:48:27;;;;;;;3.40;3.10;;;;;;;23.00;45.75;97590.97;4936594;29;20453;-75
2023/06/24 08:50:58;;;;;;;3.70;3.33;;;;;;;23.07;45.34;97593.47;4936487;29;20150;-75
2023/06/24 08:53:27;;;;;;;4.97;3.70;;;;;;;23.12;45.24;97593.59;4936744;29;20059;-76
2023/06/24 08:55:57;;;;;;;4.60;3.60;;;;;;;23.14;44.20;97602.16;4936263;29;20055;-76
2023/06/24 08:58:25;;;;;;;3.33;3.03;;;;;;;23.12;43.85;97596.25;4936485;29;20060;-75
2023/06/24 09:00:53;;;;;;;5.60;2.90;;;;;;;23.09;43.74;97599.38;4936434;29;20155;-76
2023/06/24 09:03:22;;;;;;;3.08;2.78;;;;;;;23.04;43.82;97602.75;4936201;29;20083;-75
2023/06/24 09:05:50;;;;;;;2.78;2.40;;;;;;;22.97;43.70;97599.41;4936186;29;20055;-74
2023/06/24 09:08:18;;;;;;;6.20;5.60;;;;;;;22.94;43.71;97595.38;4935805;29;20055;-75
2023/06/24 09:10:45;;;;;;;4.25;3.38;;;;;;;22.96;43.71;97597.81;4936514;29;20054;-75
2023/06/24 09:13:14;;;;;;;4.25;3.70;;;;;;;23.00;43.79;97599.78;4936273;29;20508;-75
2023/06/24 09:15:42;;;;;;;3.95;3.40;;;;;;;23.11;43.66;97591.97;4935744;29;20056;-76
2023/06/24 09:18:10;;;;;;;3.70;2.90;;;;;;;23.26;43.80;97589.59;4936260;29;20090;-76
2023/06/24 09:20:44;;;;;;;3.78;2.97;;;;;;;23.42;41.93;97585.34;4936010;29;20058;-76
2023/06/24 09:23:12;;;;;;;3.05;2.78;;;;;;;23.52;40.95;97588.19;4936083;29;20055;-76
2023/06/24 09:25:40;;;;;;;4.32;2.85;;;;;;;23.55;40.81;97579.72;4936189;29;20393;-76
2023/06/24 09:28:07;;;;;;;3.15;2.80;;;;;;;23.55;41.41;97584.22;4935883;29;20051;-76
2023/06/24 09:30:36;;;;;;;4.60;3.20;;;;;;;23.52;40.43;97582.03;4935824;29;20142;-76
2023/06/24 09:33:04;;;;;;;2.90;2.58;;;;;;;23.54;41.33;97587.94;4935835;29;20085;-76
2023/06/24 09:35:36;;;;;;;3.60;3.22;;;;;;;23.63;40.77;97573.97;4934552;29;20055;-76
2023/06/24 09:38:03;;;;;;;3.20;2.90;;;;;;;23.72;41.28;97577.03;4935836;29;20075;-77
2023/06/24 09:40:35;;;;;;;4.78;3.28;;;;;;;23.85;40.57;97571.44;4935827;29;20055;-76
2023/06/24 09:43:04;;;;;;;3.20;2.90;;;;;;;23.98;42.02;97562.28;4935546;29;20051;-76
2023/06/24 09:45:31;;;;;;;5.32;2.92;;;;;;;24.10;40.40;97562.19;4935560;29;20107;-77
2023/06/24 09:48:00;;;;;;;3.33;2.95;;;;;;;24.17;39.90;97562.03;4935257;29;20055;-77
2023/06/24 09:50:48;;;;;;;3.70;3.28;;;;;;;24.20;40.00;97556.19;4935526;29;20047;-77
2023/06/24 09:53:31;;;;;;;2.60;2.40;;;;;;;24.19;39.72;97554.59;4932702;29;20048;-77
2023/06/24 09:56:00;;;;;;;2.97;2.70;;;;;;;24.15;39.80;97556.94;4934876;29;20103;-76
2023/06/24 09:58:32;;;;;;;3.45;3.15;;;;;;;24.16;39.82;97545.22;4935330;29;20151;-76
2023/06/24 10:01:03;;;;;;;5.30;3.15;;;;;;;24.21;39.56;97542.63;4935300;29;20062;-76
2023/06/24 10:03:34;;;;;;;2.97;2.72;;;;;;;24.31;38.91;97546.47;4935300;29;20051;-76
2023/06/24 10:06:03;;;;;;;3.28;2.47;;;;;;;24.43;38.69;97539.19;4935071;29;20450;-77
2023/06/24 10:08:31;;;;;;;3.00;2.65;;;;;;;24.54;38.96;97538.28;4935174;29;20114;-77
2023/06/24 10:11:00;;;;;;;3.25;2.60;;;;;;;24.64;39.25;97537.56;4935060;29;20480;-77
2023/06/24 10:13:28;;;;;;;2.60;2.40;;;;;;;24.75;38.59;97538.50;4934952;29;20467;-77
2023/06/24 10:15:57;;;;;;;3.08;2.53;;;;;;;24.86;39.01;97541.03;4934925;29;20135;-77
2023/06/24 10:18:36;;;;;;;2.75;2.15;;;;;;;24.99;37.89;97537.19;4935445;29;20052;-77
2023/06/24 10:21:05;;;;;;;4.28;2.60;;;;;;;25.15;38.47;97534.66;4934753;29;20111;-77
2023/06/24 10:23:34;;;;;;;3.30;3.00;;;;;;;25.24;36.66;97538.50;4935316;29;20054;-77
2023/06/24 10:26:02;;;;;;;2.70;2.50;;;;;;;25.29;37.44;97525.19;4934575;29;20052;-77
2023/06/24 10:29:08;;;;;;;4.53;3.47;;;;;;;25.39;36.32;97530.63;4935020;29;20325;-77
2023/06/24 10:31:52;;;;;;;3.40;2.60;;;;;;;25.47;37.03;97530.16;4920214;29;20500;-77
2023/06/24 10:34:33;;;;;;;2.80;2.30;;;;;;;25.59;37.06;97521.97;4934810;29;20092;-77
2023/06/24 10:37:02;;;;;;;5.85;2.15;;;;;;;25.66;35.54;97513.72;4934469;29;20095;-77
2023/06/24 10:39:41;;;;;;;3.83;2.50;;;;;;;25.70;35.68;97504.16;4934679;29;20051;-77
2023/06/24 10:42:52;;;;;;;2.08;1.98;;;;;;;25.77;35.64;97515.41;4934484;29;20052;-77
2023/06/24 10:45:21;;;;;;;2.55;2.35;;;;;;;25.86;34.68;97505.03;4931028;29;20056;-77
2023/06/24 10:47:52;;;;;;;2.22;2.03;;;;;;;25.82;34.88;97502.09;4934544;29;20103;-77
2023/06/24 10:50:23;;;;;;;2.88;2.40;;;;;;;25.78;35.97;97505.50;4934357;29;20054;-77
2023/06/24 10:52:55;;;;;;;2.78;2.47;;;;;;;25.79;35.17;97502.59;4936238;29;20058;-77
2023/06/24 10:55:23;;;;;;;2.55;2.08;;;;;;;25.82;35.21;97490.56;4935187;29;20059;-77
2023/06/24 10:57:51;;;;;;;2.88;2.30;;;;;;;25.85;34.45;97490.09;4934628;29;20090;-77
2023/06/24 11:00:21;;;;;;;3.05;2.40;;;;;;;25.84;34.29;97477.75;4934432;29;20504;-77
2023/06/24 11:02:49;;;;;;;2.72;2.17;;;;;;;25.89;35.05;97475.97;4934191;29;20512;-77
2023/06/24 11:05:16;;;;;;;2.45;2.25;;;;;;;25.98;34.40;97470.94;4934398;29;20051;-77
2023/06/24 11:07:45;;;;;;;3.45;2.20;;;;;;;26.09;34.75;97469.13;4934272;29;20107;-77
2023/06/24 11:10:14;;;;;;;2.35;2.10;;;;;;;26.18;34.26;97477.44;4934380;29;20095;-77
2023/06/24 11:12:43;;;;;;;2.60;2.40;;;;;;;26.19;34.05;97471.81;4934339;29;20095;-77
2023/06/24 11:15:13;;;;;;;2.30;2.10;;;;;;;26.21;33.56;97467.00;4934063;29;20142;-77
2023/06/24 11:17:42;;;;;;;2.60;2.40;;;;;;;26.19;34.31;97463.78;4934074;29;20058;-77
2023/06/24 11:20:11;;;;;;;4.55;2.25;;;;;;;26.18;33.63;97461.41;4934262;29;20500;-77
2023/06/24 11:22:40;;;;;;;2.88;2.20;;;;;;;26.13;32.87;97464.88;4934091;29;20062;-77
2023/06/24 11:25:15;;;;;;;4.63;2.40;;;;;;;26.04;33.01;97461.88;4934487;29;20047;-77
2023/06/24 11:27:43;;;;;;;2.47;2.00;;;;;;;25.99;33.92;97450.34;4933962;29;20375;-77
2023/06/24 11:30:12;;;;;;;2.85;2.55;;;;;;;25.95;33.20;97462.63;4933942;29;20527;-77
2023/06/24 11:32:42;;;;;;;2.25;2.10;;;;;;;25.93;33.55;97456.72;4934177;29;20093;-77
2023/06/24 11:35:12;;;;;;;2.20;2.00;;;;;;;25.90;34.97;97450.03;4933934;29;20052;-76
2023/06/24 11:37:43;;;;;;;2.58;2.38;;;;;;;25.87;34.99;97455.88;4933868;29;20507;-77
2023/06/24 11:40:13;;;;;;;3.17;2.40;;;;;;;25.85;35.04;97453.47;4934045;29;20496;-77
2023/06/24 11:42:44;;;;;;;3.15;2.85;;;;;;;25.83;34.05;97444.91;4934182;29;20083;-76
2023/06/24 11:45:15;;;;;;;2.30;2.08;;;;;;;25.86;34.93;97449.72;4934160;29;20056;-77